createdAt,value
2018-06-10T00:01:10.753Z,13.50
2018-06-10T00:03:38.580Z,11.67
2018-06-10T00:06:06.391Z,13.47
2018-06-10T00:08:34.990Z,12.63
2018-06-10T00:11:02.937Z,12.57
2018-06-10T00:13:30.949Z,23.40
2018-06-10T00:15:58.780Z,12.43
2018-06-10T00:18:26.658Z,12.03
2018-06-10T00:20:55.445Z,12.20
2018-06-10T00:23:23.445Z,14.10
2018-06-10T00:25:51.252Z,16.13
2018-06-10T00:28:24.233Z,15.37
2018-06-10T00:30:52.268Z,15.60
2018-06-10T00:33:20.267Z,16.30
2018-06-10T00:35:48.078Z,20.03
2018-06-10T00:38:15.907Z,13.03
2018-06-10T00:40:43.871Z,15.90
2018-06-10T00:43:12.480Z,13.60
2018-06-10T00:45:40.288Z,15.23
2018-06-10T00:48:08.132Z,14.30
2018-06-10T00:50:36.062Z,13.97
2018-06-10T00:53:03.960Z,14.40
2018-06-10T00:55:31.935Z,14.13
2018-06-10T00:58:01.134Z,18.83
2018-06-10T01:00:29.100Z,17.23
2018-06-10T01:02:56.853Z,16.97
2018-06-10T01:05:24.864Z,20.60
2018-06-10T01:07:53.433Z,22.60
2018-06-10T01:10:21.318Z,23.60
2018-06-10T01:12:49.356Z,22.20
2018-06-10T01:15:17.972Z,26.17
2018-06-10T01:17:45.810Z,21.07
2018-06-10T01:20:13.508Z,22.40
2018-06-10T01:22:41.253Z,19.40
2018-06-10T01:25:09.191Z,24.53
2018-06-10T01:27:37.213Z,19.17
2018-06-10T01:30:05.204Z,19.47
2018-06-10T01:32:33.014Z,26.57
2018-06-10T01:35:00.868Z,20.57
2018-06-10T01:37:28.707Z,19.80
2018-06-10T01:39:56.869Z,25.40
2018-06-10T01:42:24.640Z,22.33
2018-06-10T01:44:52.642Z,22.43
2018-06-10T01:47:20.706Z,25.87
2018-06-10T01:49:48.683Z,22.43
2018-06-10T01:52:16.596Z,20.73
2018-06-10T01:54:44.514Z,24.90
2018-06-10T01:57:12.339Z,20.37
2018-06-10T01:59:40.264Z,22.97
2018-06-10T02:02:07.982Z,25.60
2018-06-10T02:04:35.892Z,22.57
2018-06-10T02:07:04.528Z,21.93
2018-06-10T02:09:32.339Z,22.00
2018-06-10T02:12:00.053Z,23.47
2018-06-10T02:14:28.152Z,29.70
2018-06-10T02:16:56.116Z,28.80
2018-06-10T02:19:24.049Z,31.77
2018-06-10T02:21:51.923Z,30.20
2018-06-10T02:24:19.696Z,28.37
2018-06-10T02:26:47.703Z,29.60
2018-06-10T02:29:15.683Z,32.77
2018-06-10T02:31:43.653Z,31.87
2018-06-10T02:34:11.521Z,32.80
2018-06-10T02:36:39.926Z,32.57
2018-06-10T02:39:07.729Z,31.40
2018-06-10T02:41:35.508Z,29.40
2018-06-10T02:44:03.404Z,28.97
2018-06-10T02:46:31.071Z,31.23
2018-06-10T02:48:59.164Z,29.93
2018-06-10T02:51:27.123Z,33.60
2018-06-10T02:53:54.997Z,33.00
2018-06-10T02:56:23.970Z,36.40
2018-06-10T02:58:52.592Z,36.83
2018-06-10T03:01:20.572Z,37.53
2018-06-10T03:03:48.425Z,32.87
2018-06-10T03:06:16.049Z,32.07
2018-06-10T03:08:43.904Z,31.07
2018-06-10T03:11:11.716Z,28.87
2018-06-10T03:13:39.539Z,34.40
2018-06-10T03:16:07.507Z,32.97
2018-06-10T03:18:35.332Z,31.83
2018-06-10T03:21:03.144Z,33.03
2018-06-10T03:23:30.982Z,40.53
2018-06-10T03:25:58.766Z,31.70
2018-06-10T03:28:26.579Z,29.50
2018-06-10T03:30:54.296Z,30.43
2018-06-10T03:33:22.080Z,28.00
2018-06-10T03:35:50.562Z,28.80
2018-06-10T03:38:18.643Z,28.00
2018-06-10T03:40:46.488Z,26.27
2018-06-10T03:43:14.275Z,28.43
2018-06-10T03:45:42.297Z,26.57
2018-06-10T03:48:10.204Z,25.47
2018-06-10T03:50:38.247Z,27.70
2018-06-10T03:53:06.064Z,22.17
2018-06-10T03:55:33.721Z,22.03
2018-06-10T03:58:01.528Z,21.57
2018-06-10T04:00:29.380Z,22.77
2018-06-10T04:02:57.656Z,19.93
2018-06-10T04:05:25.333Z,25.80
2018-06-10T04:07:53.431Z,20.90
2018-06-10T04:10:21.416Z,19.23
2018-06-10T04:12:49.243Z,20.77
2018-06-10T04:15:17.088Z,18.70
2018-06-10T04:17:45.010Z,20.00
2018-06-10T04:20:12.907Z,19.93
2018-06-10T04:22:41.046Z,19.47
2018-06-10T04:25:08.930Z,19.20
2018-06-10T04:27:36.945Z,19.77
2018-06-10T04:30:04.848Z,18.97
2018-06-10T04:32:32.764Z,16.10
2018-06-10T04:35:00.652Z,20.13
2018-06-10T04:37:28.827Z,20.73
2018-06-10T04:39:57.419Z,25.00
2018-06-10T04:42:25.256Z,28.47
2018-06-10T04:44:53.319Z,27.90
2018-06-10T04:47:21.397Z,22.93
2018-06-10T04:49:49.279Z,23.80
2018-06-10T04:52:17.879Z,24.10
2018-06-10T04:54:45.711Z,21.43
2018-06-10T04:57:14.046Z,19.10
2018-06-10T04:59:42.256Z,22.07
2018-06-10T05:02:10.104Z,20.03
2018-06-10T05:04:38.038Z,19.70
2018-06-10T05:07:05.880Z,21.47
2018-06-10T05:09:33.685Z,20.93
2018-06-10T05:12:01.638Z,20.30
2018-06-10T05:14:29.628Z,19.77
2018-06-10T05:16:57.611Z,25.03
2018-06-10T05:19:26.254Z,24.50
2018-06-10T05:21:54.157Z,17.20
2018-06-10T05:24:22.019Z,24.07
2018-06-10T05:26:49.845Z,18.40
2018-06-10T05:29:17.820Z,15.80
2018-06-10T05:31:45.601Z,19.70
2018-06-10T05:34:13.432Z,17.57
2018-06-10T05:36:41.404Z,13.17
2018-06-10T05:39:09.288Z,11.30
2018-06-10T05:41:37.247Z,11.63
2018-06-10T05:44:05.324Z,10.40
2018-06-10T05:46:33.276Z,10.43
2018-06-10T05:49:01.660Z,9.77
2018-06-10T05:51:29.529Z,12.67
2018-06-10T05:53:58.199Z,10.07
2018-06-10T05:56:26.019Z,10.60
2018-06-10T05:58:53.803Z,8.80
2018-06-10T06:01:21.664Z,10.80
2018-06-10T06:03:49.609Z,12.70
2018-06-10T06:06:17.296Z,9.00
2018-06-10T06:08:46.292Z,10.70
2018-06-10T06:11:14.128Z,8.50
2018-06-10T06:13:41.943Z,14.80
2018-06-10T06:16:09.803Z,10.13
2018-06-10T06:18:37.575Z,8.97
2018-06-10T06:21:05.571Z,9.73
2018-06-10T06:23:33.365Z,11.80
2018-06-10T06:26:01.831Z,13.10
2018-06-10T06:28:29.787Z,15.57
2018-06-10T06:30:57.782Z,15.47
2018-06-10T06:33:25.746Z,20.40
2018-06-10T06:35:53.611Z,15.33
2018-06-10T06:38:21.694Z,21.67
2018-06-10T06:40:49.679Z,24.37
2018-06-10T06:43:17.640Z,20.73
2018-06-10T06:45:46.383Z,15.43
2018-06-10T06:48:14.024Z,12.13
2018-06-10T06:50:41.731Z,10.97
2018-06-10T06:53:09.844Z,9.60
2018-06-10T06:55:37.704Z,8.37
2018-06-10T06:58:05.524Z,10.10
2018-06-10T07:00:33.470Z,8.73
2018-06-10T07:03:01.464Z,8.30
2018-06-10T07:05:29.455Z,8.30
2018-06-10T07:07:57.299Z,7.43
2018-06-10T07:10:25.366Z,7.00
2018-06-10T07:12:53.320Z,7.37
2018-06-10T07:15:21.132Z,8.70
2018-06-10T07:17:48.971Z,6.10
2018-06-10T07:20:16.792Z,8.27
2018-06-10T07:22:45.245Z,6.23
2018-06-10T07:25:13.132Z,6.50
2018-06-10T07:27:41.216Z,10.73
2018-06-10T07:30:08.980Z,6.80
2018-06-10T07:32:36.836Z,8.40
2018-06-10T07:35:05.600Z,6.90
2018-06-10T07:37:33.440Z,6.17
2018-06-10T07:40:01.340Z,6.90
2018-06-10T07:42:29.886Z,8.20
2018-06-10T07:44:57.911Z,6.67
2018-06-10T07:47:26.505Z,7.83
2018-06-10T07:49:54.504Z,6.33
2018-06-10T07:52:22.953Z,6.27
2018-06-10T07:54:51.668Z,7.20
2018-06-10T07:57:19.603Z,9.03
2018-06-10T07:59:48.223Z,9.73
2018-06-10T08:02:16.112Z,6.43
2018-06-10T08:04:43.940Z,10.17
2018-06-10T08:07:11.801Z,6.70
2018-06-10T08:09:39.755Z,7.40
2018-06-10T08:12:08.394Z,9.27
2018-06-10T08:14:36.252Z,6.87
2018-06-10T08:17:04.020Z,6.07
2018-06-10T08:19:32.654Z,6.47
2018-06-10T08:22:00.596Z,6.73
2018-06-10T08:24:28.437Z,6.57
2018-06-10T08:26:56.159Z,12.63
2018-06-10T08:29:24.228Z,14.47
2018-06-10T08:31:52.832Z,8.00
2018-06-10T08:34:20.768Z,7.30
2018-06-10T08:36:48.661Z,8.03
2018-06-10T08:39:16.619Z,9.20
2018-06-10T08:41:45.060Z,13.70
2018-06-10T08:44:12.973Z,7.67
2018-06-10T08:46:40.869Z,9.03
2018-06-10T08:49:08.919Z,7.60
2018-06-10T08:51:36.920Z,8.57
2018-06-10T08:54:05.548Z,8.90
2018-06-10T08:56:34.123Z,8.03
2018-06-10T08:59:02.028Z,6.30
2018-06-10T09:01:30.494Z,11.13
2018-06-10T09:03:58.873Z,8.73
2018-06-10T09:06:27.381Z,7.10
2018-06-10T09:08:55.247Z,7.33
2018-06-10T09:11:22.912Z,7.30
2018-06-10T09:13:50.813Z,7.07
2018-06-10T09:16:18.667Z,9.10
2018-06-10T09:18:46.460Z,9.20
2018-06-10T09:21:14.205Z,10.73
2018-06-10T09:23:42.357Z,11.63
2018-06-10T09:26:10.201Z,11.67
2018-06-10T09:28:38.183Z,9.53
2018-06-10T09:31:05.996Z,9.37
2018-06-10T09:33:33.807Z,10.73
2018-06-10T09:36:01.759Z,8.13
2018-06-10T09:38:30.356Z,11.60
2018-06-10T09:40:58.188Z,12.43
2018-06-10T09:43:26.637Z,8.10
2018-06-10T09:45:54.686Z,8.93
2018-06-10T09:48:22.689Z,7.27
2018-06-10T09:50:50.656Z,7.27
2018-06-10T09:53:19.557Z,6.83
2018-06-10T09:55:48.845Z,9.67
2018-06-10T09:58:16.891Z,9.23
2018-06-10T10:00:44.736Z,14.70
2018-06-10T10:03:12.877Z,13.17
2018-06-10T10:05:40.936Z,17.23
2018-06-10T10:08:08.945Z,21.20
2018-06-10T10:10:36.961Z,21.03
2018-06-10T10:13:04.729Z,18.27
2018-06-10T10:15:32.593Z,16.53
2018-06-10T10:18:00.477Z,17.37
2018-06-10T10:20:29.876Z,16.87
2018-06-10T10:22:57.603Z,16.90
2018-06-10T10:25:25.609Z,15.40
2018-06-10T10:27:53.605Z,20.60
2018-06-10T10:30:22.554Z,19.70
2018-06-10T10:32:50.422Z,13.30
2018-06-10T10:35:18.356Z,13.87
2018-06-10T10:37:46.484Z,12.03
2018-06-10T10:40:14.426Z,14.27
2018-06-10T10:42:42.263Z,12.13
2018-06-10T10:45:10.369Z,14.50
2018-06-10T10:47:38.625Z,12.23
2018-06-10T10:50:06.936Z,13.10
2018-06-10T10:52:34.863Z,12.00
2018-06-10T10:55:03.512Z,11.23
2018-06-10T10:57:32.069Z,16.70
2018-06-10T11:00:00.886Z,13.70
2018-06-10T11:02:29.886Z,14.50
2018-06-10T11:04:58.653Z,12.40
2018-06-10T11:07:27.023Z,12.50
2018-06-10T11:09:55.146Z,12.60
2018-06-10T11:12:22.868Z,18.70
2018-06-10T11:14:50.989Z,13.47
2018-06-10T11:17:21.801Z,12.80
2018-06-10T11:19:49.568Z,11.77
2018-06-10T11:22:17.848Z,12.40
2018-06-10T11:24:46.544Z,10.00
2018-06-10T11:27:15.665Z,11.77
2018-06-10T11:29:44.621Z,9.53
2018-06-10T11:32:12.640Z,10.93
2018-06-10T11:34:41.216Z,11.30
2018-06-10T11:37:09.994Z,10.57
2018-06-10T11:39:39.832Z,11.70
2018-06-10T11:42:07.931Z,11.17
2018-06-10T11:44:35.893Z,13.30
2018-06-10T11:47:03.933Z,17.40
2018-06-10T11:49:31.791Z,13.10
2018-06-10T11:52:00.522Z,12.63
2018-06-10T11:54:30.159Z,14.33
2018-06-10T11:56:59.625Z,12.60
2018-06-10T11:59:27.724Z,12.90
2018-06-10T12:01:55.695Z,14.83
2018-06-10T12:04:23.703Z,15.63
2018-06-10T12:06:51.759Z,12.83
2018-06-10T12:09:21.070Z,16.40
2018-06-10T12:11:48.935Z,11.07
2018-06-10T12:14:17.876Z,17.73
2018-06-10T12:16:45.643Z,12.57
2018-06-10T12:19:13.886Z,11.43
2018-06-10T12:21:42.054Z,10.93
2018-06-10T12:24:09.932Z,12.27
2018-06-10T12:26:37.963Z,10.83
2018-06-10T12:29:05.816Z,12.87
2018-06-10T12:31:33.629Z,14.53
2018-06-10T12:34:01.602Z,15.37
2018-06-10T12:36:29.435Z,11.43
2018-06-10T12:38:57.262Z,15.17
2018-06-10T12:41:25.223Z,13.03
2018-06-10T12:43:53.084Z,18.70
2018-06-10T12:46:21.759Z,12.80
2018-06-10T12:48:49.629Z,15.73
2018-06-10T12:51:17.436Z,11.30
2018-06-10T12:53:46.334Z,14.97
2018-06-10T12:56:14.229Z,13.30
2018-06-10T12:58:42.290Z,12.63
2018-06-10T13:01:10.288Z,13.87
2018-06-10T13:03:38.144Z,13.00
2018-06-10T13:06:08.002Z,16.87
2018-06-10T13:08:36.657Z,15.80
2018-06-10T13:11:05.236Z,13.70
2018-06-10T13:13:33.955Z,14.10
2018-06-10T13:16:01.640Z,15.10
2018-06-10T13:18:29.415Z,14.27
2018-06-10T13:20:57.307Z,13.07
2018-06-10T13:23:25.272Z,18.37
2018-06-10T13:25:52.960Z,14.43
2018-06-10T13:28:20.711Z,16.03
2018-06-10T13:30:49.654Z,16.20
2018-06-10T13:33:17.588Z,17.20
2018-06-10T13:35:45.461Z,14.63
2018-06-10T13:38:13.187Z,15.50
2018-06-10T13:40:41.333Z,13.60
2018-06-10T13:43:09.212Z,17.13
2018-06-10T13:45:38.091Z,14.93
2018-06-10T13:48:06.091Z,15.10
2018-06-10T13:50:33.922Z,13.57
2018-06-10T13:53:01.915Z,14.90
2018-06-10T13:55:29.975Z,16.10
2018-06-10T13:57:57.984Z,12.10
2018-06-10T14:00:25.820Z,19.27
2018-06-10T14:02:53.605Z,16.93
2018-06-10T14:05:21.568Z,12.57
2018-06-10T14:07:50.110Z,13.40
2018-06-10T14:10:17.984Z,12.50
2018-06-10T14:12:45.805Z,13.73
2018-06-10T14:15:13.814Z,14.40
2018-06-10T14:17:43.720Z,14.13
2018-06-10T14:20:11.570Z,12.73
2018-06-10T14:22:39.535Z,12.87
2018-06-10T14:25:07.568Z,13.03
2018-06-10T14:27:35.501Z,16.03
2018-06-10T14:30:03.399Z,12.37
2018-06-10T14:32:31.715Z,12.20
2018-06-10T14:34:59.703Z,16.03
2018-06-10T14:37:27.533Z,20.73
2018-06-10T14:39:56.001Z,15.20
2018-06-10T14:42:23.798Z,13.10
2018-06-10T14:44:52.285Z,12.17
2018-06-10T14:47:20.168Z,11.97
2018-06-10T14:49:48.043Z,12.07
2018-06-10T14:52:15.857Z,12.87
2018-06-10T14:54:43.713Z,12.10
2018-06-10T14:57:11.476Z,12.40
2018-06-10T14:59:40.095Z,14.60
2018-06-10T15:02:08.040Z,12.07
2018-06-10T15:04:36.660Z,12.37
2018-06-10T15:07:04.593Z,13.10
2018-06-10T15:09:32.901Z,12.03
2018-06-10T15:12:02.650Z,15.27
2018-06-10T15:14:31.949Z,11.40
2018-06-10T15:16:59.882Z,11.20
2018-06-10T15:19:27.892Z,11.30
2018-06-10T15:21:55.700Z,11.47
2018-06-10T15:24:23.792Z,15.53
2018-06-10T15:26:52.372Z,15.77
2018-06-10T15:29:20.400Z,13.03
2018-06-10T15:31:48.751Z,13.73
2018-06-10T15:34:16.590Z,15.33
2018-06-10T15:36:44.515Z,13.37
2018-06-10T15:39:13.519Z,12.27
2018-06-10T15:41:41.344Z,14.37
2018-06-10T15:44:09.066Z,16.17
2018-06-10T15:46:36.956Z,16.27
2018-06-10T15:49:04.897Z,19.10
2018-06-10T15:51:33.545Z,14.50
2018-06-10T15:54:02.976Z,14.80
2018-06-10T15:56:30.851Z,13.93
2018-06-10T15:58:58.607Z,18.23
2018-06-10T16:01:26.613Z,20.33
2018-06-10T16:03:54.548Z,15.20
2018-06-10T16:06:22.806Z,14.40
2018-06-10T16:08:52.094Z,14.47
2018-06-10T16:11:19.947Z,16.43
2018-06-10T16:13:47.888Z,16.37
2018-06-10T16:16:16.000Z,15.20
2018-06-10T16:18:44.560Z,15.83
2018-06-10T16:21:12.529Z,19.10
2018-06-10T16:23:40.555Z,18.20
2018-06-10T16:26:08.341Z,19.00
2018-06-10T16:28:36.803Z,15.97
2018-06-10T16:31:04.590Z,15.60
2018-06-10T16:33:32.327Z,15.10
2018-06-10T16:36:00.372Z,16.00
2018-06-10T16:38:29.000Z,18.30
2018-06-10T16:40:56.837Z,16.13
2018-06-10T16:43:25.228Z,14.20
2018-06-10T16:45:53.087Z,14.13
2018-06-10T16:48:20.776Z,14.87
2018-06-10T16:50:48.848Z,14.50
2018-06-10T16:53:16.841Z,15.50
2018-06-10T16:55:45.761Z,15.17
2018-06-10T16:58:13.749Z,18.70
2018-06-10T17:00:42.289Z,17.17
2018-06-10T17:03:10.248Z,18.03
2018-06-10T17:05:38.091Z,18.87
2018-06-10T17:08:06.390Z,18.90
2018-06-10T17:10:34.217Z,22.03
2018-06-10T17:13:02.121Z,17.93
2018-06-10T17:15:30.148Z,29.33
2018-06-10T17:17:57.961Z,19.40
2018-06-10T17:20:25.880Z,18.17
2018-06-10T17:22:53.718Z,17.93
2018-06-10T17:25:21.577Z,18.63
2018-06-10T17:27:49.340Z,18.40
2018-06-10T17:30:17.570Z,17.97
2018-06-10T17:32:45.612Z,15.07
2018-06-10T17:35:14.186Z,17.80
2018-06-10T17:37:42.080Z,15.80
2018-06-10T17:40:09.785Z,15.87
2018-06-10T17:42:37.821Z,16.53
2018-06-10T17:45:05.725Z,18.53
2018-06-10T17:47:33.770Z,17.10
2018-06-10T17:50:01.740Z,18.03
2018-06-10T17:52:30.674Z,19.47
2018-06-10T17:54:58.825Z,17.67
2018-06-10T17:57:26.843Z,17.70
2018-06-10T17:59:54.556Z,15.90
2018-06-10T18:02:23.211Z,16.93
2018-06-10T18:04:51.108Z,19.40
2018-06-10T18:07:19.060Z,18.07
2018-06-10T18:09:46.921Z,18.40
2018-06-10T18:12:14.777Z,17.80
2018-06-10T18:14:42.689Z,20.63
2018-06-10T18:17:10.570Z,17.20
2018-06-10T18:19:38.530Z,20.23
2018-06-10T18:22:06.552Z,17.03
2018-06-10T18:24:35.319Z,20.07
2018-06-10T18:27:03.277Z,18.50
2018-06-10T18:29:31.299Z,17.40
2018-06-10T18:31:59.203Z,18.07
2018-06-10T18:34:27.487Z,18.63
2018-06-10T18:36:55.542Z,17.93
2018-06-10T18:39:23.527Z,20.83
2018-06-10T18:41:51.454Z,18.33
2018-06-10T18:44:20.030Z,17.47
2018-06-10T18:46:47.965Z,19.97
2018-06-10T18:49:16.058Z,17.33
2018-06-10T18:51:43.845Z,19.20
2018-06-10T18:54:11.704Z,23.43
2018-06-10T18:56:39.642Z,19.47
2018-06-10T18:59:07.633Z,22.50
2018-06-10T19:01:35.557Z,18.20
2018-06-10T19:04:03.484Z,23.40
2018-06-10T19:06:31.496Z,19.23
2018-06-10T19:09:00.166Z,21.33
2018-06-10T19:11:28.107Z,21.63
2018-06-10T19:13:56.088Z,21.57
2018-06-10T19:16:23.906Z,23.20
2018-06-10T19:18:51.604Z,25.60
2018-06-10T19:21:19.680Z,19.70
2018-06-10T19:23:47.688Z,20.90
2018-06-10T19:26:15.703Z,20.77
2018-06-10T19:28:43.660Z,17.40
2018-06-10T19:31:11.589Z,21.00
2018-06-10T19:33:39.593Z,18.00
2018-06-10T19:36:08.143Z,17.50
2018-06-10T19:38:36.720Z,18.97
2018-06-10T19:41:04.713Z,16.30
2018-06-10T19:43:32.670Z,14.53
2018-06-10T19:46:00.627Z,6.07
2018-06-10T19:48:28.656Z,14.17
2018-06-10T19:50:56.467Z,17.50
2018-06-10T19:53:24.501Z,11.93
2018-06-10T19:55:52.488Z,16.30
2018-06-10T19:58:21.050Z,16.33
2018-06-10T20:00:49.446Z,17.50
2018-06-10T20:03:17.278Z,12.53
2018-06-10T20:05:45.380Z,13.23
2018-06-10T20:08:13.212Z,15.40
2018-06-10T20:10:41.086Z,17.43
2018-06-10T20:13:08.977Z,12.80
2018-06-10T20:15:36.835Z,15.27
2018-06-10T20:18:04.600Z,13.43
2018-06-10T20:20:32.504Z,14.07
2018-06-10T20:23:00.334Z,16.50
2018-06-10T20:25:28.356Z,14.37
2018-06-10T20:27:56.312Z,18.40
2018-06-10T20:30:24.622Z,15.50
2018-06-10T20:32:52.585Z,14.53
2018-06-10T20:35:20.419Z,16.80
2018-06-10T20:37:48.241Z,15.43
2018-06-10T20:40:16.200Z,17.00
2018-06-10T20:42:44.044Z,18.53
2018-06-10T20:45:11.609Z,11.93
2018-06-10T20:47:39.494Z,14.80
2018-06-10T20:50:07.492Z,13.60
2018-06-10T20:52:35.448Z,13.87
2018-06-10T20:55:03.308Z,13.13
2018-06-10T20:57:31.201Z,9.50
2018-06-10T20:59:58.912Z,13.93
2018-06-10T21:02:27.454Z,12.87
2018-06-10T21:04:55.145Z,11.60
2018-06-10T21:07:23.918Z,12.70
2018-06-10T21:09:51.889Z,12.37
2018-06-10T21:12:19.869Z,9.43
2018-06-10T21:14:47.689Z,12.63
2018-06-10T21:17:15.468Z,11.57
2018-06-10T21:19:43.013Z,13.60
2018-06-10T21:22:11.200Z,9.17
2018-06-10T21:24:39.670Z,15.80
2018-06-10T21:27:07.698Z,11.43
2018-06-10T21:29:35.296Z,9.70
2018-06-10T21:32:03.456Z,10.10
2018-06-10T21:34:31.185Z,8.47
2018-06-10T21:36:58.984Z,10.60
2018-06-10T21:39:26.565Z,11.20
2018-06-10T21:41:54.608Z,10.90
2018-06-10T21:44:23.222Z,12.17
2018-06-10T21:46:51.181Z,11.10
2018-06-10T21:49:19.037Z,14.10
2018-06-10T21:51:48.092Z,13.30
2018-06-10T21:54:15.987Z,10.07
2018-06-10T21:56:44.837Z,16.80
2018-06-10T21:59:13.209Z,14.80
2018-06-10T22:01:41.113Z,11.57
2018-06-10T22:04:09.025Z,14.70
2018-06-10T22:06:37.754Z,12.70
2018-06-10T22:09:06.788Z,12.53
2018-06-10T22:11:34.609Z,18.30
2018-06-10T22:14:02.882Z,13.07
2018-06-10T22:16:30.884Z,12.87
2018-06-10T22:18:58.829Z,14.30
2018-06-10T22:21:26.824Z,12.30
2018-06-10T22:23:54.676Z,12.93
2018-06-10T22:26:22.465Z,10.93
2018-06-10T22:28:50.407Z,12.27
2018-06-10T22:31:18.450Z,12.37
2018-06-10T22:33:46.246Z,9.63
2018-06-10T22:36:14.084Z,12.43
2018-06-10T22:38:41.926Z,11.40
2018-06-10T22:41:09.924Z,11.57
2018-06-10T22:43:37.872Z,16.73
2018-06-10T22:46:05.970Z,13.10
2018-06-10T22:48:33.906Z,13.00
2018-06-10T22:51:01.791Z,10.23
2018-06-10T22:53:34.775Z,17.23
2018-06-10T22:56:03.379Z,15.37
2018-06-10T22:58:31.290Z,17.83
2018-06-10T23:00:59.620Z,17.30
2018-06-10T23:03:27.472Z,15.37
2018-06-10T23:05:55.596Z,14.23
2018-06-10T23:08:24.488Z,14.50
2018-06-10T23:10:52.431Z,17.30
2018-06-10T23:13:20.405Z,14.20
2018-06-10T23:15:48.273Z,13.40
2018-06-10T23:18:16.073Z,12.57
2018-06-10T23:20:43.856Z,11.87
2018-06-10T23:23:11.930Z,12.03
2018-06-10T23:25:39.879Z,10.47
2018-06-10T23:28:07.708Z,11.53
2018-06-10T23:30:35.520Z,12.33
2018-06-10T23:33:03.377Z,13.00
2018-06-10T23:35:31.146Z,10.10
2018-06-10T23:37:59.955Z,15.30
2018-06-10T23:40:27.911Z,14.10
2018-06-10T23:42:56.149Z,15.43
2018-06-10T23:45:23.995Z,16.43
2018-06-10T23:47:52.457Z,11.17
2018-06-10T23:50:20.108Z,11.83
2018-06-10T23:52:47.869Z,13.00
2018-06-10T23:55:15.900Z,11.33
2018-06-10T23:57:44.451Z,14.70
